Grand.pioneer — HOBN — position and weather

sailwx.info

Track history (hours):
 
Tides and Currents Weather Stations Pressure Air Temp Water Temp Dewpoint Dewpoint Depression Visibility Wind Speed Wind Dir Waves Ship Positions

Grand.pioneer

Last reported at 2018-Jun-13 19:29 UTC. Time now 2018-Jun-25 19:46 UTC.
Position S 32°13' E 033°02'.
Warning: this ship's position is 12 days out of date.

Length 200 m; draft 9.3 m.

Type: Cargo ship. MMSI: 352935000.

Date/timePositionNaut miles runAvg speedWind from/ knotsBaromVisibWave heightAir tempDewpointWater temp
2018-Jun-13 19:29S 32°13' E 033°02'2917.7
2018-Jun-13 17:51S 32°25' E 032°31'618.0
2018-Jun-13 17:29S 32°28' E 032°25'2018.1
2018-Jun-13 16:24S 32°37' E 032°04'817.9
2018-Jun-13 15:59S 32°40' E 031°55'917.7
2018-Jun-13 15:29S 32°44' E 031°46'917.4
2018-Jun-13 14:58S 32°48' E 031°37'817.3
2018-Jun-13 14:30S 32°51' E 031°28'917.1
2018-Jun-13 14:00S 32°55' E 031°19'2917.6
2018-Jun-13 12:20S 33°08' E 030°47'516.6
2018-Jun-13 12:00S 33°10' E 030°41'57216.0
2018-Jun-12 00:11S 35°01' E 019°23'416.7
2018-Jun-11 23:58S 34°59' E 019°19'1116.8
2018-Jun-11 23:17S 34°56' E 019°06'516.6
2018-Jun-11 23:00S 34°54' E 019°01'816.7
2018-Jun-11 22:30S 34°51' E 018°51'916.9
2018-Jun-11 22:00S 34°48' E 018°41'817.0
2018-Jun-11 21:30S 34°45' E 018°32'916.7
2018-Jun-11 21:00S 34°42' E 018°22'1016.0
2018-Jun-11 20:24S 34°36' E 018°13'616.5
2018-Jun-11 20:00S 34°31' E 018°08'916.6
2018-Jun-11 19:29S 34°24' E 018°02'816.5
2018-Jun-11 19:00S 34°18' E 017°56'816.2
2018-Jun-11 18:29S 34°11' E 017°50'816.0
2018-Jun-11 17:59S 34°05' E 017°44'815.9
2018-Jun-11 17:30S 33°58' E 017°38'815.9
2018-Jun-11 17:00S 33°52' E 017°33'  
Track history (hours):
 
Tides and Currents Weather Stations Pressure Air Temp Water Temp Dewpoint Dewpoint Depression Visibility Wind Speed Wind Dir Waves Ship Positions

Grand.pioneer

Last reported at 2018-Jun-13 19:29 UTC. Time now 2018-Jun-25 19:46 UTC.
Position S 32°13' E 033°02'.
Warning: this ship's position is 12 days out of date.

Length 200 m; draft 9.3 m.

Type: Cargo ship. MMSI: 352935000.

Date/timePositionNaut miles runAvg speedWind from/ knotsBaromVisibWave heightAir tempDewpointWater temp
2018-Jun-13 19:29S 32°13' E 033°02'2917.7
2018-Jun-13 17:51S 32°25' E 032°31'618.0
2018-Jun-13 17:29S 32°28' E 032°25'2018.1
2018-Jun-13 16:24S 32°37' E 032°04'817.9
2018-Jun-13 15:59S 32°40' E 031°55'917.7
2018-Jun-13 15:29S 32°44' E 031°46'917.4
2018-Jun-13 14:58S 32°48' E 031°37'817.3
2018-Jun-13 14:30S 32°51' E 031°28'917.1
2018-Jun-13 14:00S 32°55' E 031°19'2917.6
2018-Jun-13 12:20S 33°08' E 030°47'516.6
2018-Jun-13 12:00S 33°10' E 030°41'57216.0
2018-Jun-12 00:11S 35°01' E 019°23'416.7
2018-Jun-11 23:58S 34°59' E 019°19'1116.8
2018-Jun-11 23:17S 34°56' E 019°06'516.6
2018-Jun-11 23:00S 34°54' E 019°01'816.7
2018-Jun-11 22:30S 34°51' E 018°51'916.9
2018-Jun-11 22:00S 34°48' E 018°41'817.0
2018-Jun-11 21:30S 34°45' E 018°32'916.7
2018-Jun-11 21:00S 34°42' E 018°22'1016.0
2018-Jun-11 20:24S 34°36' E 018°13'616.5
2018-Jun-11 20:00S 34°31' E 018°08'916.6
2018-Jun-11 19:29S 34°24' E 018°02'816.5
2018-Jun-11 19:00S 34°18' E 017°56'816.2
2018-Jun-11 18:29S 34°11' E 017°50'816.0
2018-Jun-11 17:59S 34°05' E 017°44'815.9
2018-Jun-11 17:30S 33°58' E 017°38'815.9
2018-Jun-11 17:00S 33°52' E 017°33'  

Dump ship's entire track history